createdAt,value
2023-02-28T00:00:11.096Z,102864.00
2023-02-28T00:02:39.168Z,102872.84
2023-02-28T00:05:08.401Z,102861.25
2023-02-28T00:07:36.458Z,102864.53
2023-02-28T00:10:04.955Z,102865.38
2023-02-28T00:12:32.649Z,102868.09
2023-02-28T00:15:00.344Z,102870.75
2023-02-28T00:17:29.451Z,102876.72
2023-02-28T00:19:57.906Z,102875.34
2023-02-28T00:22:25.644Z,102872.63
2023-02-28T00:24:53.359Z,102876.91
2023-02-28T00:27:21.092Z,102874.28
2023-02-28T00:29:49.121Z,102880.19
2023-02-28T00:32:16.827Z,102878.44
2023-02-28T00:34:45.908Z,102877.53
2023-02-28T00:37:13.990Z,102884.53
2023-02-28T00:39:42.770Z,102879.69
2023-02-28T00:42:10.508Z,102880.63
2023-02-28T00:44:38.236Z,102882.34
2023-02-28T00:47:06.508Z,102880.13
2023-02-28T00:49:34.231Z,102875.72
2023-02-28T00:52:03.448Z,102871.25
2023-02-28T00:54:31.246Z,102886.44
2023-02-28T00:56:59.045Z,102887.78
2023-02-28T00:59:26.805Z,102881.09
2023-02-28T01:01:54.600Z,102888.31
2023-02-28T01:04:22.328Z,102890.84
2023-02-28T01:06:50.058Z,102889.84
2023-02-28T01:09:19.158Z,102890.75
2023-02-28T01:11:46.964Z,102889.94
2023-02-28T01:14:16.064Z,102892.50
2023-02-28T01:16:43.994Z,102886.19
2023-02-28T01:19:12.330Z,102892.50
2023-02-28T01:21:40.201Z,102901.28
2023-02-28T01:24:08.484Z,102887.94
2023-02-28T01:26:37.984Z,102889.66
2023-02-28T01:29:05.630Z,102897.66
2023-02-28T01:31:33.445Z,102895.03
2023-02-28T01:34:01.284Z,102888.75
2023-02-28T01:36:29.034Z,102894.44
2023-02-28T01:38:56.778Z,102884.63
2023-02-28T01:41:26.994Z,102886.44
2023-02-28T01:44:04.200Z,102885.38
2023-02-28T01:46:33.277Z,102878.19
2023-02-28T01:49:07.239Z,102878.09
2023-02-28T01:51:39.618Z,102881.53
2023-02-28T01:54:14.666Z,102877.84
2023-02-28T01:56:46.562Z,102875.22
2023-02-28T01:59:23.406Z,102871.69
2023-02-28T02:01:51.757Z,102870.59
2023-02-28T02:04:20.292Z,102879.22
2023-02-28T02:06:50.205Z,102874.94
2023-02-28T02:09:17.894Z,102869.41
2023-02-28T02:11:47.330Z,102869.31
2023-02-28T02:14:31.681Z,102867.47
2023-02-28T02:17:12.046Z,102858.56
2023-02-28T02:20:12.713Z,102860.00
2023-02-28T02:23:09.083Z,102855.25
2023-02-28T02:25:44.846Z,102850.50
2023-02-28T02:28:36.405Z,102846.19
2023-02-28T02:31:45.201Z,102855.88
2023-02-28T02:34:28.957Z,102854.78
2023-02-28T02:37:06.023Z,102849.41
2023-02-28T02:39:58.147Z,102859.13
2023-02-28T02:42:31.494Z,102851.97
2023-02-28T02:45:03.617Z,102853.28
2023-02-28T02:47:34.016Z,102852.28
2023-02-28T02:50:07.046Z,102851.16
2023-02-28T02:52:40.792Z,102855.44
2023-02-28T02:55:11.926Z,102857.13
2023-02-28T02:57:46.936Z,102852.72
2023-02-28T03:00:19.287Z,102860.59
2023-02-28T03:02:49.583Z,102863.94
2023-02-28T03:05:22.294Z,102860.88
2023-02-28T03:07:50.200Z,102859.00
2023-02-28T03:10:34.410Z,102853.75
2023-02-28T03:13:13.543Z,102856.97
2023-02-28T03:15:52.808Z,102856.03
2023-02-28T03:18:26.981Z,102857.59
2023-02-28T03:21:07.086Z,102851.53
2023-02-28T03:23:44.348Z,102847.34
2023-02-28T03:26:19.348Z,102852.09
2023-02-28T03:28:57.963Z,102853.84
2023-02-28T03:31:32.807Z,102849.84
2023-02-28T03:34:06.643Z,102849.84
2023-02-28T03:36:44.619Z,102856.84
2023-02-28T03:39:26.247Z,102854.91
2023-02-28T03:41:58.625Z,102860.19
2023-02-28T03:44:28.312Z,102860.09
2023-02-28T03:47:02.020Z,102860.00
2023-02-28T03:49:34.991Z,102870.22
2023-02-28T03:52:08.071Z,102864.16
2023-02-28T03:54:43.456Z,102868.31
2023-02-28T03:57:18.279Z,102873.75
2023-02-28T03:59:50.203Z,102865.16
2023-02-28T04:02:17.954Z,102859.91
2023-02-28T04:04:49.392Z,102860.88
2023-02-28T04:07:19.130Z,102855.63
2023-02-28T04:09:47.026Z,102859.69
2023-02-28T04:12:14.772Z,102864.25
2023-02-28T04:14:42.506Z,102862.44
2023-02-28T04:17:10.268Z,102858.78
2023-02-28T04:19:38.260Z,102856.28
2023-02-28T04:22:05.997Z,102863.13
2023-02-28T04:24:35.297Z,102864.44
2023-02-28T04:27:03.748Z,102865.56
2023-02-28T04:29:33.786Z,102870.13
2023-02-28T04:32:02.608Z,102870.84
2023-02-28T04:34:34.843Z,102871.53
2023-02-28T04:37:12.893Z,102877.31
2023-02-28T04:39:44.076Z,102868.22
2023-02-28T04:42:12.373Z,102875.09
2023-02-28T04:44:40.144Z,102874.69
2023-02-28T04:47:07.920Z,102877.81
2023-02-28T04:49:35.662Z,102873.47
2023-02-28T04:52:03.399Z,102879.94
2023-02-28T04:54:31.155Z,102877.03
2023-02-28T04:57:00.188Z,102881.94
2023-02-28T04:59:27.864Z,102868.81
2023-02-28T05:01:55.585Z,102883.88
2023-02-28T05:04:23.362Z,102877.09
2023-02-28T05:06:51.118Z,102878.31
2023-02-28T05:09:18.833Z,102882.59
2023-02-28T05:11:46.538Z,102877.31
2023-02-28T05:14:16.159Z,102882.59
2023-02-28T05:16:43.990Z,102887.13
2023-02-28T05:19:12.129Z,102885.41
2023-02-28T05:21:41.898Z,102887.72
2023-02-28T05:24:12.942Z,102889.34
2023-02-28T05:26:43.032Z,102888.25
2023-02-28T05:29:11.490Z,102891.88
2023-02-28T05:31:40.672Z,102887.00
2023-02-28T05:34:08.919Z,102891.47
2023-02-28T05:36:38.989Z,102889.94
2023-02-28T05:39:08.299Z,102896.84
2023-02-28T05:41:36.005Z,102900.06
2023-02-28T05:44:03.666Z,102896.63
2023-02-28T05:46:31.390Z,102905.41
2023-02-28T05:49:01.774Z,102901.66
2023-02-28T05:51:30.258Z,102905.31
2023-02-28T05:54:01.408Z,102910.03
2023-02-28T05:56:29.327Z,102912.56
2023-02-28T05:58:57.203Z,102913.88
2023-02-28T06:01:32.685Z,102907.59
2023-02-28T06:04:02.224Z,102913.06
2023-02-28T06:06:31.488Z,102915.69
2023-02-28T06:08:59.549Z,102908.91
2023-02-28T06:11:29.061Z,102912.91
2023-02-28T06:13:58.453Z,102908.81
2023-02-28T06:16:26.584Z,102921.50
2023-02-28T06:18:56.672Z,102921.28
2023-02-28T06:21:26.180Z,102923.44
2023-02-28T06:23:53.928Z,102920.50
2023-02-28T06:26:22.099Z,102930.91
2023-02-28T06:28:50.198Z,102938.59
2023-02-28T06:31:20.053Z,102932.38
2023-02-28T06:33:48.917Z,102934.53
2023-02-28T06:36:18.679Z,102930.53
2023-02-28T06:38:52.265Z,102934.38
2023-02-28T06:41:20.049Z,102936.19
2023-02-28T06:43:47.742Z,102940.06
2023-02-28T06:46:16.181Z,102937.00
2023-02-28T06:48:46.177Z,102947.59
2023-02-28T06:51:16.778Z,102946.91
2023-02-28T06:53:44.863Z,102945.31
2023-02-28T06:56:16.109Z,102950.78
2023-02-28T06:58:43.943Z,102945.53
2023-02-28T07:01:11.780Z,102961.69
2023-02-28T07:03:39.514Z,102950.34
2023-02-28T07:06:07.974Z,102953.91
2023-02-28T07:08:36.756Z,102953.31
2023-02-28T07:11:04.581Z,102952.09
2023-02-28T07:13:34.026Z,102958.59
2023-02-28T07:16:07.498Z,102960.63
2023-02-28T07:18:35.275Z,102959.34
2023-02-28T07:21:04.934Z,102962.50
2023-02-28T07:23:33.051Z,102962.09
2023-02-28T07:26:04.903Z,102968.50
2023-02-28T07:28:34.557Z,102975.06
2023-02-28T07:31:06.605Z,102966.78
2023-02-28T07:33:37.693Z,102966.28
2023-02-28T07:36:07.328Z,102965.78
2023-02-28T07:38:36.207Z,102965.28
2023-02-28T07:41:06.498Z,102971.03
2023-02-28T07:43:35.957Z,102975.69
2023-02-28T07:46:05.339Z,102974.38
2023-02-28T07:48:33.147Z,102978.31
2023-02-28T07:51:01.793Z,102973.50
2023-02-28T07:53:30.329Z,102971.25
2023-02-28T07:55:58.480Z,102966.19
2023-02-28T07:58:26.722Z,102977.84
2023-02-28T08:00:55.980Z,102969.53
2023-02-28T08:03:25.005Z,102979.44
2023-02-28T08:05:53.499Z,102973.88
2023-02-28T08:08:21.263Z,102974.06
2023-02-28T08:10:49.062Z,102977.59
2023-02-28T08:13:16.779Z,102978.09
2023-02-28T08:15:46.339Z,102979.28
2023-02-28T08:18:15.473Z,102984.75
2023-02-28T08:20:43.176Z,102981.78
2023-02-28T08:23:10.889Z,102984.13
2023-02-28T08:25:38.655Z,102980.22
2023-02-28T08:28:06.555Z,102978.78
2023-02-28T08:30:34.542Z,102976.44
2023-02-28T08:33:02.823Z,102973.88
2023-02-28T08:35:32.110Z,102976.72
2023-02-28T08:37:59.919Z,102985.13
2023-02-28T08:40:27.584Z,102980.84
2023-02-28T08:42:55.442Z,102982.94
2023-02-28T08:45:23.314Z,102979.84
2023-02-28T08:47:53.459Z,102979.50
2023-02-28T08:50:31.729Z,102979.41
2023-02-28T08:52:59.539Z,102979.69
2023-02-28T08:55:27.200Z,102972.25
2023-02-28T08:57:55.917Z,102975.53
2023-02-28T09:00:24.801Z,102970.91
2023-02-28T09:02:52.617Z,102973.97
2023-02-28T09:05:20.476Z,102962.88
2023-02-28T09:07:50.071Z,102965.06
2023-02-28T09:10:18.401Z,102954.66
2023-02-28T09:12:47.795Z,102957.06
2023-02-28T09:15:15.614Z,102961.03
2023-02-28T09:17:45.693Z,102953.38
2023-02-28T09:20:14.639Z,102948.09
2023-02-28T09:22:42.413Z,102946.34
2023-02-28T09:25:11.502Z,102944.06
2023-02-28T09:27:39.249Z,102947.31
2023-02-28T09:30:08.495Z,102953.97
2023-02-28T09:32:36.231Z,102953.19
2023-02-28T09:35:04.092Z,102948.28
2023-02-28T09:37:32.183Z,102945.97
2023-02-28T09:39:59.959Z,102945.56
2023-02-28T09:42:33.942Z,102940.78
2023-02-28T09:45:04.006Z,102946.97
2023-02-28T09:47:36.170Z,102948.31
2023-02-28T09:50:13.712Z,102942.84
2023-02-28T09:52:44.167Z,102935.22
2023-02-28T09:55:26.334Z,102940.72
2023-02-28T09:57:58.553Z,102941.78
2023-02-28T10:00:32.590Z,102942.94
2023-02-28T10:03:08.789Z,102945.75
2023-02-28T10:05:44.387Z,102947.44
2023-02-28T10:08:17.220Z,102945.59
2023-02-28T10:10:47.155Z,102945.16
2023-02-28T10:13:22.044Z,102942.06
2023-02-28T10:15:53.964Z,102936.78
2023-02-28T10:18:26.659Z,102932.31
2023-02-28T10:20:56.780Z,102935.84
2023-02-28T10:23:27.888Z,102929.81
2023-02-28T10:25:59.421Z,102932.53
2023-02-28T10:28:31.858Z,102937.84
2023-02-28T10:31:00.730Z,102934.72
2023-02-28T10:33:32.154Z,102947.13
2023-02-28T10:36:00.747Z,102933.63
2023-02-28T10:38:30.319Z,102936.94
2023-02-28T10:41:09.059Z,102921.72
2023-02-28T10:43:39.223Z,102923.50
2023-02-28T10:46:16.260Z,102931.19
2023-02-28T10:48:48.762Z,102927.25
2023-02-28T10:51:20.005Z,102923.31
2023-02-28T10:54:01.478Z,102916.75
2023-02-28T10:56:30.705Z,102930.47
2023-02-28T10:59:02.247Z,102925.00
2023-02-28T11:01:41.187Z,102919.75
2023-02-28T11:04:34.358Z,102919.53
2023-02-28T11:07:04.089Z,102913.63
2023-02-28T11:09:35.819Z,102916.00
2023-02-28T11:12:05.997Z,102920.66
2023-02-28T11:14:42.109Z,102916.75
2023-02-28T11:17:17.327Z,102915.81
2023-02-28T11:19:49.530Z,102918.88
2023-02-28T11:22:21.415Z,102917.03
2023-02-28T11:24:53.180Z,102913.44
2023-02-28T11:27:46.065Z,102911.13
2023-02-28T11:30:26.327Z,102912.56
2023-02-28T11:32:55.494Z,102913.91
2023-02-28T11:35:28.183Z,102910.59
2023-02-28T11:37:55.967Z,102908.47
2023-02-28T11:40:31.704Z,102911.63
2023-02-28T11:43:08.752Z,102913.72
2023-02-28T11:45:48.791Z,102901.66
2023-02-28T11:48:24.336Z,102882.03
2023-02-28T11:51:02.151Z,102900.13
2023-02-28T11:53:57.081Z,102901.03
2023-02-28T11:56:32.175Z,102905.41
2023-02-28T11:59:25.620Z,102903.69
2023-02-28T12:02:10.771Z,102893.09
2023-02-28T12:04:51.101Z,102882.25
2023-02-28T12:07:29.713Z,102895.66
2023-02-28T12:10:09.171Z,102874.66
2023-02-28T12:12:46.006Z,102872.91
2023-02-28T12:15:49.403Z,102877.50
2023-02-28T12:18:36.354Z,102866.13
2023-02-28T12:21:15.381Z,102864.59
2023-02-28T12:23:58.199Z,102849.16
2023-02-28T12:26:37.272Z,102850.97
2023-02-28T12:29:12.835Z,102839.50
2023-02-28T12:31:44.247Z,102837.28
2023-02-28T12:34:17.973Z,102828.59
2023-02-28T12:36:49.903Z,102838.56
2023-02-28T12:39:24.151Z,102824.28
2023-02-28T12:41:56.521Z,102826.88
2023-02-28T12:44:30.599Z,102826.44
2023-02-28T12:47:05.192Z,102825.53
2023-02-28T12:49:39.336Z,102831.69
2023-02-28T12:52:12.008Z,102821.84
2023-02-28T12:54:46.592Z,102823.00
2023-02-28T12:57:20.970Z,102817.94
2023-02-28T12:59:54.226Z,102815.47
2023-02-28T13:03:01.968Z,102806.78
2023-02-28T13:06:06.177Z,102802.25
2023-02-28T13:09:03.030Z,102797.91
2023-02-28T13:11:33.380Z,102793.16
2023-02-28T13:14:04.264Z,102795.25
2023-02-28T13:16:53.324Z,102791.88
2023-02-28T13:19:24.379Z,102790.44
2023-02-28T13:21:53.298Z,102799.25
2023-02-28T13:24:47.664Z,102789.72
2023-02-28T13:27:41.465Z,102780.19
2023-02-28T13:30:46.642Z,102773.31
2023-02-28T13:33:27.912Z,102787.78
2023-02-28T13:36:27.722Z,102778.63
2023-02-28T13:39:00.973Z,102779.66
2023-02-28T13:41:57.127Z,102770.22
2023-02-28T13:44:27.937Z,102767.56
2023-02-28T13:47:28.067Z,102766.66
2023-02-28T13:50:21.967Z,102762.47
2023-02-28T13:52:57.673Z,102762.53
2023-02-28T13:55:31.154Z,102778.63
2023-02-28T13:58:41.212Z,102777.22
2023-02-28T14:01:24.461Z,102776.25
2023-02-28T14:04:08.104Z,102780.91
2023-02-28T14:06:37.786Z,102780.00
2023-02-28T14:09:18.781Z,102789.78
2023-02-28T14:11:47.848Z,102773.41
2023-02-28T14:14:49.012Z,102776.59
2023-02-28T14:17:19.706Z,102775.25
2023-02-28T14:19:50.976Z,102764.88
2023-02-28T14:22:42.703Z,102774.00
2023-02-28T14:25:19.390Z,102774.72
2023-02-28T14:27:52.245Z,102774.53
2023-02-28T14:30:39.175Z,102771.16
2023-02-28T14:33:23.044Z,102756.53
2023-02-28T14:36:24.926Z,102764.78
2023-02-28T14:38:55.055Z,102768.56
2023-02-28T14:41:25.515Z,102768.78
2023-02-28T14:43:57.964Z,102762.59
2023-02-28T14:46:28.323Z,102768.81
2023-02-28T14:48:58.067Z,102750.50
2023-02-28T14:51:26.240Z,102759.41
2023-02-28T14:53:59.629Z,102767.38
2023-02-28T14:56:32.337Z,102757.25
2023-02-28T14:59:00.284Z,102749.69
2023-02-28T15:01:28.878Z,102757.31
2023-02-28T15:04:03.711Z,102755.75
2023-02-28T15:06:32.389Z,102752.84
2023-02-28T15:09:11.355Z,102752.66
2023-02-28T15:11:40.994Z,102754.53
2023-02-28T15:14:09.663Z,102746.69
2023-02-28T15:16:41.323Z,102744.81
2023-02-28T15:19:21.312Z,102752.94
2023-02-28T15:21:53.407Z,102746.03
2023-02-28T15:24:26.456Z,102749.94
2023-02-28T15:26:59.189Z,102755.19
2023-02-28T15:29:30.210Z,102759.50
2023-02-28T15:32:02.264Z,102744.50
2023-02-28T15:34:42.882Z,102745.44
2023-02-28T15:37:31.947Z,102751.88
2023-02-28T15:40:06.895Z,102738.47
2023-02-28T15:42:34.706Z,102741.13
2023-02-28T15:45:02.552Z,102745.50
2023-02-28T15:47:40.626Z,102742.78
2023-02-28T15:50:16.157Z,102744.38
2023-02-28T15:52:46.164Z,102750.34
2023-02-28T15:55:21.414Z,102753.88
2023-02-28T15:57:52.422Z,102744.09
2023-02-28T16:00:24.996Z,102750.63
2023-02-28T16:02:53.522Z,102748.69
2023-02-28T16:05:29.090Z,102751.03
2023-02-28T16:08:05.683Z,102756.50
2023-02-28T16:10:33.429Z,102735.28
2023-02-28T16:13:05.703Z,102744.16
2023-02-28T16:15:42.547Z,102746.81
2023-02-28T16:18:12.408Z,102750.09
2023-02-28T16:20:42.421Z,102747.03
2023-02-28T16:23:10.258Z,102746.22
2023-02-28T16:25:40.632Z,102753.47
2023-02-28T16:28:14.811Z,102756.19
2023-02-28T16:30:42.726Z,102751.31
2023-02-28T16:33:11.509Z,102755.63
2023-02-28T16:35:39.817Z,102753.91
2023-02-28T16:38:09.208Z,102761.81
2023-02-28T16:40:38.808Z,102769.66
2023-02-28T16:43:10.498Z,102766.81
2023-02-28T16:45:38.462Z,102773.06
2023-02-28T16:48:06.389Z,102771.75
2023-02-28T16:50:34.600Z,102777.03
2023-02-28T16:53:12.021Z,102762.91
2023-02-28T16:55:39.819Z,102765.44
2023-02-28T16:58:07.863Z,102770.47
2023-02-28T17:00:35.813Z,102773.06
2023-02-28T17:03:06.373Z,102774.88
2023-02-28T17:05:39.385Z,102777.47
2023-02-28T17:08:07.617Z,102786.19
2023-02-28T17:10:37.120Z,102783.47
2023-02-28T17:13:14.518Z,102782.47
2023-02-28T17:15:43.663Z,102788.34
2023-02-28T17:18:16.921Z,102797.06
2023-02-28T17:20:44.704Z,102799.50
2023-02-28T17:23:12.473Z,102796.66
2023-02-28T17:25:41.655Z,102800.06
2023-02-28T17:28:11.072Z,102799.78
2023-02-28T17:30:41.034Z,102803.13
2023-02-28T17:33:09.065Z,102797.75
2023-02-28T17:35:36.767Z,102801.28
2023-02-28T17:38:04.526Z,102809.03
2023-02-28T17:40:32.560Z,102810.72
2023-02-28T17:43:01.715Z,102810.72
2023-02-28T17:45:29.509Z,102816.69
2023-02-28T17:47:57.444Z,102810.34
2023-02-28T17:50:25.265Z,102805.66
2023-02-28T17:52:53.038Z,102805.44
2023-02-28T17:55:20.973Z,102813.31
2023-02-28T17:57:48.782Z,102814.97
2023-02-28T18:00:19.334Z,102826.41
2023-02-28T18:02:47.301Z,102809.44
2023-02-28T18:05:15.196Z,102815.50
2023-02-28T18:07:43.162Z,102819.91
2023-02-28T18:10:16.976Z,102818.78
2023-02-28T18:12:45.073Z,102822.25
2023-02-28T18:15:12.926Z,102826.63
2023-02-28T18:17:43.979Z,102825.59
2023-02-28T18:20:12.748Z,102835.44
2023-02-28T18:22:42.054Z,102830.75
2023-02-28T18:25:17.860Z,102835.88
2023-02-28T18:27:58.433Z,102838.47
2023-02-28T18:30:30.681Z,102832.00
2023-02-28T18:33:03.293Z,102836.41
2023-02-28T18:35:35.969Z,102834.44
2023-02-28T18:38:05.867Z,102829.91
2023-02-28T18:40:33.921Z,102835.88
2023-02-28T18:43:02.068Z,102827.94
2023-02-28T18:45:30.058Z,102827.84
2023-02-28T18:47:59.848Z,102825.13
2023-02-28T18:50:27.739Z,102823.91
2023-02-28T18:52:55.480Z,102822.06
2023-02-28T18:55:24.052Z,102828.16
2023-02-28T18:57:51.972Z,102830.47
2023-02-28T19:00:22.549Z,102838.25
2023-02-28T19:02:51.042Z,102834.28
2023-02-28T19:05:23.009Z,102831.66
2023-02-28T19:07:51.121Z,102835.66
2023-02-28T19:10:21.188Z,102829.94
2023-02-28T19:12:49.119Z,102831.19
2023-02-28T19:15:16.942Z,102835.66
2023-02-28T19:17:46.245Z,102840.13
2023-02-28T19:20:14.608Z,102829.47
2023-02-28T19:22:45.267Z,102840.72
2023-02-28T19:25:13.052Z,102839.91
2023-02-28T19:27:40.821Z,102839.06
2023-02-28T19:30:10.565Z,102840.88
2023-02-28T19:32:38.489Z,102840.34
2023-02-28T19:35:06.809Z,102844.44
2023-02-28T19:37:37.858Z,102842.38
2023-02-28T19:40:08.719Z,102841.56
2023-02-28T19:42:36.876Z,102847.66
2023-02-28T19:45:05.587Z,102852.56
2023-02-28T19:47:33.311Z,102843.53
2023-02-28T19:50:01.128Z,102851.22
2023-02-28T19:52:28.822Z,102848.50
2023-02-28T19:54:56.560Z,102849.16
2023-02-28T19:57:26.930Z,102851.00
2023-02-28T19:59:54.736Z,102852.03
2023-02-28T20:02:23.621Z,102853.13
2023-02-28T20:04:52.006Z,102854.69
2023-02-28T20:07:21.271Z,102858.84
2023-02-28T20:09:49.469Z,102867.41
2023-02-28T20:12:24.157Z,102868.06
2023-02-28T20:14:56.156Z,102866.22
2023-02-28T20:17:24.421Z,102883.09
2023-02-28T20:19:52.250Z,102871.84
2023-02-28T20:22:21.424Z,102871.75
2023-02-28T20:24:52.028Z,102867.25
2023-02-28T20:27:19.854Z,102878.56
2023-02-28T20:29:47.689Z,102871.44
2023-02-28T20:32:16.931Z,102869.53
2023-02-28T20:34:44.862Z,102865.81
2023-02-28T20:37:12.929Z,102867.22
2023-02-28T20:39:40.864Z,102861.75
2023-02-28T20:42:08.653Z,102866.78
2023-02-28T20:44:36.432Z,102868.41
2023-02-28T20:47:04.740Z,102864.22
2023-02-28T20:49:34.448Z,102864.97
2023-02-28T20:52:03.204Z,102864.44
2023-02-28T20:54:33.040Z,102862.56
2023-02-28T20:57:00.981Z,102860.81
2023-02-28T20:59:29.043Z,102858.97
2023-02-28T21:01:57.314Z,102861.53
2023-02-28T21:04:25.125Z,102865.91
2023-02-28T21:06:54.277Z,102861.38
2023-02-28T21:09:22.096Z,102863.03
2023-02-28T21:11:49.948Z,102858.56
2023-02-28T21:14:18.869Z,102861.94
2023-02-28T21:16:46.958Z,102856.47
2023-02-28T21:19:15.053Z,102859.84
2023-02-28T21:21:48.084Z,102858.84
2023-02-28T21:24:19.818Z,102861.41
2023-02-28T21:26:48.931Z,102860.31
2023-02-28T21:29:17.333Z,102867.06
2023-02-28T21:31:45.161Z,102868.53
2023-02-28T21:34:14.238Z,102868.63
2023-02-28T21:36:47.448Z,102867.97
2023-02-28T21:39:18.985Z,102862.44
2023-02-28T21:41:48.315Z,102866.63
2023-02-28T21:44:18.856Z,102866.34
2023-02-28T21:46:48.475Z,102860.19
2023-02-28T21:49:17.386Z,102868.66
2023-02-28T21:51:45.428Z,102863.38
2023-02-28T21:54:14.005Z,102868.72
2023-02-28T21:56:43.437Z,102861.28
2023-02-28T21:59:11.402Z,102858.72
2023-02-28T22:01:41.408Z,102865.00
2023-02-28T22:04:11.686Z,102869.63
2023-02-28T22:06:42.172Z,102867.44
2023-02-28T22:09:11.372Z,102872.28
2023-02-28T22:11:40.376Z,102863.53
2023-02-28T22:14:12.310Z,102866.00
2023-02-28T22:16:51.303Z,102865.28
2023-02-28T22:19:20.875Z,102867.38
2023-02-28T22:21:48.697Z,102863.91
2023-02-28T22:24:17.784Z,102863.47
2023-02-28T22:26:45.679Z,102860.56
2023-02-28T22:29:14.714Z,102859.34
2023-02-28T22:31:42.421Z,102865.75
2023-02-28T22:34:12.696Z,102868.38
2023-02-28T22:36:42.143Z,102867.53
2023-02-28T22:39:10.537Z,102861.38
2023-02-28T22:41:38.613Z,102871.09
2023-02-28T22:44:07.039Z,102872.00
2023-02-28T22:46:37.052Z,102872.44
2023-02-28T22:49:06.473Z,102877.53
2023-02-28T22:51:35.619Z,102867.91
2023-02-28T22:54:04.431Z,102875.81
2023-02-28T22:56:32.618Z,102870.44
2023-02-28T22:59:02.085Z,102870.88
2023-02-28T23:01:32.037Z,102867.44
2023-02-28T23:04:01.608Z,102854.44
2023-02-28T23:06:32.369Z,102859.00
2023-02-28T23:09:04.029Z,102857.97
2023-02-28T23:11:34.510Z,102872.91
2023-02-28T23:14:02.440Z,102865.44
2023-02-28T23:16:32.625Z,102873.44
2023-02-28T23:19:03.787Z,102877.81
2023-02-28T23:21:32.005Z,102881.88
2023-02-28T23:24:02.656Z,102878.25
2023-02-28T23:26:31.251Z,102873.50
2023-02-28T23:28:59.700Z,102878.28
2023-02-28T23:31:27.561Z,102885.47
2023-02-28T23:33:56.674Z,102881.09
2023-02-28T23:36:25.722Z,102889.38
2023-02-28T23:38:54.019Z,102884.53
2023-02-28T23:41:23.618Z,102886.34
2023-02-28T23:43:53.232Z,102888.91
2023-02-28T23:46:22.600Z,102894.16
2023-02-28T23:48:50.659Z,102889.09
2023-02-28T23:51:20.715Z,102897.69
2023-02-28T23:53:51.914Z,102898.13
2023-02-28T23:56:21.397Z,102912.94
2023-02-28T23:58:49.634Z,102909.28
